CheckWX is a tool to help pilots better visualize weather data.  It is not intended as a substitute for an official pre-flight weather briefing.

22:17:57 UTC

2P2 METAR
Washington Island Airport
Washington Island, Wisconsin, USA
Current

23 mins ago

K2P2 252155Z AUTO 24005KT 10SM CLR 01/M09 A3031 RMK AO2 LTG DSNT S T00111089
Observed
Mar-25 @ 21:55 UTC
Wind
  • 240° at 5 KTS
Visibility
10 SM
Flight Rules
VFR
Cloud Levels
  • Clear skies
Temperature
C / 34°F
Dewpoint
-9°C / 16°F
Humidity
48%
Altimeter
30.31" Hg
Pressure
1026.42 hPa
Previous

43 mins ago

K2P2 252135Z AUTO 25006KT 10SM CLR 01/M10 A3032 RMK AO2 T00111096
Observed
Mar-25 @ 21:35 UTC
Wind
  • 250° at 6 KTS
Visibility
10 SM
Flight Rules
VFR
Cloud Levels
  • Clear skies
Temperature
C / 34°F
Dewpoint
-10°C / 14°F
Humidity
44%
Altimeter
30.32" Hg
Pressure
1026.72 hPa
Previous

1 hour ago

K2P2 252115Z AUTO 23006KT 10SM CLR 01/M11 A3032 RMK AO2 T00121107
Observed
Mar-25 @ 21:15 UTC
Wind
  • 230° at 6 KTS
Visibility
10 SM
Flight Rules
VFR
Cloud Levels
  • Clear skies
Temperature
C / 34°F
Dewpoint
-11°C / 12°F
Humidity
41%
Altimeter
30.32" Hg
Pressure
1026.72 hPa